DAL8025 KMSY-KSAT
Flight info
| Callsign | DAL8025 |
|---|---|
| Flight time | N/A |
| Altitude | 32000 |
| Route | LFT LCH CAAGE QERVO3 |
| Aircraft | B738/M-SDE2E3FGHIRWXY/LB1 |
Departure
| Time | 2026-05-08 00:16 |
|---|---|
| Airport | Louis Armstrong New Orleans International Airport (KMSY) |
Arrival
| Time | N/A |
|---|---|
| Airport | San Antonio International Airport (KSAT) |
| Time | Latitude | Longitude | Altitude | Speed | Heading |
|---|---|---|---|---|---|
| 2026-05-07 23:54 | 29.99417 | -90.25611 | 13 ft | 0 kts | 284° |
| 2026-05-08 00:08 | 29.99416 | -90.25609 | 13 ft | 1 kts | 285° |
| 2026-05-08 00:09 | 29.99414 | -90.25598 | 12 ft | 2 kts | 276° |
| 2026-05-08 00:09 | 29.99415 | -90.25580 | 12 ft | 2 kts | 250° |
| 2026-05-08 00:09 | 29.99423 | -90.25565 | 13 ft | 2 kts | 228° |
| 2026-05-08 00:09 | 29.99434 | -90.25554 | 13 ft | 2 kts | 206° |
| 2026-05-08 00:10 | 29.99447 | -90.25549 | 13 ft | 0 kts | 187° |
| 2026-05-08 00:10 | 29.99454 | -90.25549 | 13 ft | 1 kts | 183° |
| 2026-05-08 00:10 | 29.99455 | -90.25549 | 13 ft | 0 kts | 184° |
| 2026-05-08 00:12 | 29.99445 | -90.25549 | 12 ft | 5 kts | 182° |
| 2026-05-08 00:12 | 29.99392 | -90.25551 | 12 ft | 9 kts | 181° |
| 2026-05-08 00:12 | 29.99335 | -90.25553 | 12 ft | 7 kts | 182° |
| 2026-05-08 00:12 | 29.99270 | -90.25556 | 12 ft | 11 kts | 180° |
| 2026-05-08 00:13 | 29.99211 | -90.25516 | 12 ft | 9 kts | 110° |
| 2026-05-08 00:13 | 29.99204 | -90.25430 | 13 ft | 11 kts | 91° |
| 2026-05-08 00:13 | 29.99195 | -90.25316 | 12 ft | 14 kts | 94° |
| 2026-05-08 00:13 | 29.99190 | -90.25204 | 12 ft | 13 kts | 95° |
| 2026-05-08 00:14 | 29.99182 | -90.25105 | 12 ft | 10 kts | 104° |
| 2026-05-08 00:14 | 29.99129 | -90.25071 | 12 ft | 8 kts | 182° |
| 2026-05-08 00:14 | 29.99048 | -90.25094 | 12 ft | 13 kts | 197° |
| 2026-05-08 00:14 | 29.98956 | -90.25130 | 12 ft | 12 kts | 221° |
| 2026-05-08 00:15 | 29.98947 | -90.25214 | 12 ft | 0 kts | 285° |
| 2026-05-08 00:15 | 29.98952 | -90.25234 | 12 ft | 14 kts | 287° |
| 2026-05-08 00:15 | 29.99068 | -90.25705 | 13 ft | 104 kts | 285° |
| 2026-05-08 00:15 | 29.99335 | -90.26803 | 51 ft | 173 kts | 287° |
| 2026-05-08 00:16 | 29.99673 | -90.28231 | 707 ft | 196 kts | 286° |
| 2026-05-08 00:16 | 30.00001 | -90.29838 | 1489 ft | 221 kts | 285° |
| 2026-05-08 00:16 | 30.00331 | -90.31602 | 2327 ft | 233 kts | 285° |
| 2026-05-08 00:16 | 30.00681 | -90.33474 | 3075 ft | 248 kts | 284° |
| 2026-05-08 00:17 | 30.01069 | -90.35457 | 3730 ft | 263 kts | 284° |
| 2026-05-08 00:17 | 30.01477 | -90.37480 | 4771 ft | 260 kts | 283° |
| 2026-05-08 00:17 | 30.01642 | -90.39511 | 5878 ft | 257 kts | 267° |
| 2026-05-08 00:17 | 30.01486 | -90.41511 | 6969 ft | 254 kts | 267° |
| 2026-05-08 00:18 | 30.01465 | -90.43557 | 7807 ft | 261 kts | 274° |
| 2026-05-08 00:18 | 30.01664 | -90.45637 | 8724 ft | 264 kts | 278° |
| 2026-05-08 00:18 | 30.01948 | -90.47722 | 9646 ft | 267 kts | 278° |
| 2026-05-08 00:18 | 30.02233 | -90.49807 | 10587 ft | 267 kts | 278° |
| 2026-05-08 00:19 | 30.02505 | -90.51907 | 11519 ft | 267 kts | 276° |
| 2026-05-08 00:19 | 30.02761 | -90.54000 | 12445 ft | 266 kts | 276° |
| 2026-05-08 00:19 | 30.03012 | -90.56110 | 13271 ft | 268 kts | 275° |
| 2026-05-08 00:19 | 30.03262 | -90.58228 | 14110 ft | 270 kts | 275° |
| 2026-05-08 00:20 | 30.03514 | -90.60350 | 14996 ft | 268 kts | 275° |
| 2026-05-08 00:20 | 30.03765 | -90.62483 | 15758 ft | 271 kts | 275° |
| 2026-05-08 00:20 | 30.04017 | -90.64625 | 16562 ft | 271 kts | 274° |
| 2026-05-08 00:20 | 30.04265 | -90.66765 | 17402 ft | 270 kts | 274° |
| 2026-05-08 00:21 | 30.04512 | -90.68880 | 18204 ft | 269 kts | 274° |
| 2026-05-08 00:21 | 30.04773 | -90.71033 | 18810 ft | 274 kts | 274° |
| 2026-05-08 00:21 | 30.05028 | -90.73206 | 19478 ft | 277 kts | 274° |
| 2026-05-08 00:21 | 30.05282 | -90.75402 | 20124 ft | 279 kts | 274° |
| 2026-05-08 00:22 | 30.05543 | -90.77621 | 20770 ft | 281 kts | 274° |
| 2026-05-08 00:22 | 30.05809 | -90.79867 | 21336 ft | 285 kts | 274° |
| 2026-05-08 00:22 | 30.06079 | -90.82129 | 21965 ft | 287 kts | 274° |
| 2026-05-08 00:22 | 30.06352 | -90.84429 | 22522 ft | 290 kts | 275° |
| 2026-05-08 00:23 | 30.06623 | -90.86728 | 23104 ft | 292 kts | 275° |
| 2026-05-08 00:23 | 30.06897 | -90.89046 | 23752 ft | 292 kts | 275° |
| 2026-05-08 00:23 | 30.07172 | -90.91364 | 24291 ft | 294 kts | 275° |
| 2026-05-08 00:23 | 30.07449 | -90.93704 | 24810 ft | 297 kts | 275° |
| 2026-05-08 00:24 | 30.07729 | -90.96066 | 25356 ft | 298 kts | 275° |
| 2026-05-08 00:24 | 30.08012 | -90.98446 | 25911 ft | 299 kts | 275° |
| 2026-05-08 00:24 | 30.08286 | -91.00812 | 26536 ft | 297 kts | 274° |
| 2026-05-08 00:24 | 30.08553 | -91.03160 | 27185 ft | 293 kts | 275° |
| 2026-05-08 00:25 | 30.08830 | -91.05452 | 27916 ft | 286 kts | 275° |
| 2026-05-08 00:25 | 30.09107 | -91.07686 | 28577 ft | 280 kts | 274° |
| 2026-05-08 00:25 | 30.09358 | -91.09904 | 29062 ft | 279 kts | 274° |
| 2026-05-08 00:25 | 30.09604 | -91.12119 | 29501 ft | 279 kts | 274° |
| 2026-05-08 00:26 | 30.09851 | -91.14349 | 29909 ft | 280 kts | 273° |
| 2026-05-08 00:26 | 30.10113 | -91.16578 | 30302 ft | 280 kts | 273° |
| 2026-05-08 00:26 | 30.10348 | -91.18806 | 30673 ft | 280 kts | 272° |
| 2026-05-08 00:26 | 30.10578 | -91.21027 | 31110 ft | 279 kts | 272° |
| 2026-05-08 00:27 | 30.10825 | -91.23231 | 31507 ft | 278 kts | 272° |
| 2026-05-08 00:27 | 30.11091 | -91.25436 | 31812 ft | 279 kts | 273° |
| 2026-05-08 00:27 | 30.11372 | -91.27672 | 31958 ft | 285 kts | 274° |
| 2026-05-08 00:27 | 30.11644 | -91.29960 | 31984 ft | 292 kts | 272° |
| 2026-05-08 00:28 | 30.11914 | -91.32307 | 31988 ft | 297 kts | 274° |
| 2026-05-08 00:28 | 30.12183 | -91.34674 | 31984 ft | 299 kts | 273° |
| 2026-05-08 00:28 | 30.12739 | -91.39563 | 31984 ft | 316 kts | 273° |
| 2026-05-08 00:29 | 30.13323 | -91.44731 | 31979 ft | 332 kts | 274° |
| 2026-05-08 00:29 | 30.13946 | -91.50071 | 31986 ft | 335 kts | 274° |
| 2026-05-08 00:30 | 30.14163 | -91.51951 | 31985 ft | 333 kts | 274° |